首页
METAR-TAF:

METAR-TAF

机场 :

Luxeuil-les-Bains, 法国

纬度: 47-47N, 经度: 006-21E, 海拔: 278米

当前天气观测

该预报发布于26分钟前的07:30 UTC
风速2节,风向西北
温度 -2°C
湿度 100%
气压 1007 hPa
能見度: 3400
少量云层高于200英尺
阴天层高于16000英尺
轻雾

METAR: LFSX 170730Z AUTO 31002KT 3400 BR FEW002 OVC160 M02/M02 Q1007

时间: 08:56 (07:56 UTC)

预报

该预报发布于17小时和56分钟前的14:00 UTC
预报有效从15日的 15点(UTC)到 16日的 15点(UTC)
风速9节,风向南转西南
能见度10公里或以上
多云层高于2000英尺
短暂存在
从 15日的 18点(UTC)到 16日的 08点(UTC)
能見度: 4000
阴天层高于600英尺
轻雾
几率 40% :
短暂存在
从 15日的 19点(UTC)到 15日的 23点(UTC)
能見度: 0700

TAF: LFSX 151400Z 1515/1615 20009KT 9999 BKN020 TEMPO 1518/1608 4000 BR OVC006 PROB40 TEMPO 1519/1523 0700 FG

超过4000个机场的气象观测和天气预报(METAR&TAF报告)。

可查询的气象台以黄色和红色小点在地图上表示。

将鼠标移到小点上方,可查看气象台名称。

然后点击查看天气观测和预报。

如需切换地图:点击带黑十字的绿色按钮放大地图;点击带横线的绿色按钮缩小地图;或者点击绿色箭头查看邻近地区的地图。


METAR-TAF: